createdAt,value
2023-01-22T00:01:20.320Z,69.55
2023-01-22T00:03:47.309Z,69.38
2023-01-22T00:06:14.385Z,70.32
2023-01-22T00:08:41.368Z,70.09
2023-01-22T00:11:08.080Z,68.72
2023-01-22T00:13:35.231Z,70.06
2023-01-22T00:16:01.913Z,69.89
2023-01-22T00:18:29.012Z,70.68
2023-01-22T00:20:56.017Z,70.60
2023-01-22T00:23:23.930Z,70.44
2023-01-22T00:26:00.109Z,70.84
2023-01-22T00:28:26.825Z,70.67
2023-01-22T00:31:01.297Z,70.80
2023-01-22T00:33:28.179Z,70.93
2023-01-22T00:35:55.059Z,70.75
2023-01-22T00:38:21.656Z,70.63
2023-01-22T00:40:48.426Z,70.17
2023-01-22T00:43:15.037Z,70.44
2023-01-22T00:45:41.696Z,71.42
2023-01-22T00:48:08.343Z,71.22
2023-01-22T00:50:35.084Z,70.72
2023-01-22T00:53:01.725Z,70.43
2023-01-22T00:55:28.378Z,70.03
2023-01-22T00:57:55.000Z,70.59
2023-01-22T01:00:21.745Z,70.60
2023-01-22T01:02:48.379Z,70.65
2023-01-22T01:05:15.149Z,69.94
2023-01-22T01:07:41.921Z,71.20
2023-01-22T01:10:09.042Z,70.98
2023-01-22T01:12:35.768Z,70.53
2023-01-22T01:15:02.413Z,71.11
2023-01-22T01:17:29.054Z,70.82
2023-01-22T01:19:55.645Z,70.97
2023-01-22T01:22:22.365Z,71.07
2023-01-22T01:24:49.065Z,71.50
2023-01-22T01:27:15.709Z,71.42
2023-01-22T01:29:42.365Z,71.68
2023-01-22T01:32:09.091Z,70.97
2023-01-22T01:34:35.735Z,71.14
2023-01-22T01:37:02.388Z,71.35
2023-01-22T01:39:29.293Z,71.31
2023-01-22T01:41:55.934Z,71.97
2023-01-22T01:44:24.314Z,71.08
2023-01-22T01:47:07.752Z,70.63
2023-01-22T01:49:47.019Z,70.42
2023-01-22T01:52:15.633Z,71.17
2023-01-22T01:54:49.635Z,71.27
2023-01-22T01:57:33.635Z,71.54
2023-01-22T02:00:03.977Z,70.90
2023-01-22T02:02:30.821Z,71.51
2023-01-22T02:04:58.314Z,71.56
2023-01-22T02:07:24.948Z,71.20
2023-01-22T02:09:51.566Z,71.53
2023-01-22T02:12:18.508Z,71.37
2023-01-22T02:14:45.421Z,71.81
2023-01-22T02:17:14.490Z,71.72
2023-01-22T02:19:42.363Z,70.62
2023-01-22T02:22:21.112Z,70.11
2023-01-22T02:24:48.547Z,69.72
2023-01-22T02:27:15.252Z,69.41
2023-01-22T02:29:41.992Z,69.90
2023-01-22T02:32:08.699Z,68.80
2023-01-22T02:34:35.339Z,68.61
2023-01-22T02:37:01.977Z,68.91
2023-01-22T02:39:28.684Z,68.46
2023-01-22T02:41:55.829Z,68.41
2023-01-22T02:44:22.774Z,67.97
2023-01-22T02:46:49.395Z,68.50
2023-01-22T02:49:16.246Z,67.72
2023-01-22T02:51:42.892Z,67.16
2023-01-22T02:54:09.524Z,67.44
2023-01-22T02:56:36.251Z,66.58
2023-01-22T02:59:04.561Z,65.96
2023-01-22T03:01:31.364Z,65.69
2023-01-22T03:04:03.485Z,66.04
2023-01-22T03:06:30.109Z,65.81
2023-01-22T03:08:59.616Z,65.90
2023-01-22T03:11:29.808Z,65.96
2023-01-22T03:13:57.383Z,66.33
2023-01-22T03:16:24.895Z,65.21
2023-01-22T03:18:51.554Z,65.81
2023-01-22T03:21:18.424Z,66.65
2023-01-22T03:23:47.433Z,65.95
2023-01-22T03:26:14.950Z,66.18
2023-01-22T03:28:42.125Z,66.22
2023-01-22T03:31:10.098Z,67.02
2023-01-22T03:33:36.917Z,66.44
2023-01-22T03:36:07.258Z,66.84
2023-01-22T03:38:34.539Z,66.51
2023-01-22T03:41:10.401Z,66.39
2023-01-22T03:43:37.479Z,66.42
2023-01-22T03:46:12.116Z,66.46
2023-01-22T03:48:39.571Z,66.50
2023-01-22T03:51:14.943Z,67.01
2023-01-22T03:53:43.826Z,65.77
2023-01-22T03:56:17.182Z,66.78
2023-01-22T03:58:44.380Z,67.45
2023-01-22T04:01:14.412Z,67.58
2023-01-22T04:03:41.276Z,66.99
2023-01-22T04:06:09.526Z,67.43
2023-01-22T04:08:38.414Z,66.51
2023-01-22T04:11:05.601Z,66.30
2023-01-22T04:13:34.094Z,65.78
2023-01-22T04:16:01.049Z,65.76
2023-01-22T04:18:28.141Z,67.21
2023-01-22T04:20:54.844Z,67.12
2023-01-22T04:23:22.684Z,65.34
2023-01-22T04:25:49.898Z,68.03
2023-01-22T04:28:17.422Z,68.92
2023-01-22T04:30:46.208Z,68.58
2023-01-22T04:33:13.599Z,69.49
2023-01-22T04:35:40.277Z,69.53
2023-01-22T04:38:07.920Z,69.11
2023-01-22T04:40:34.537Z,69.01
2023-01-22T04:43:02.326Z,69.57
2023-01-22T04:45:29.408Z,69.38
2023-01-22T04:47:56.547Z,70.19
2023-01-22T04:50:26.976Z,70.45
2023-01-22T04:52:55.847Z,70.88
2023-01-22T04:55:24.286Z,70.94
2023-01-22T04:57:53.525Z,70.74
2023-01-22T05:00:20.486Z,70.41
2023-01-22T05:02:47.413Z,70.53
2023-01-22T05:05:14.142Z,71.23
2023-01-22T05:07:40.824Z,70.51
2023-01-22T05:10:08.241Z,71.56
2023-01-22T05:12:34.864Z,71.30
2023-01-22T05:15:02.939Z,71.18
2023-01-22T05:17:31.090Z,71.04
2023-01-22T05:19:57.708Z,70.42
2023-01-22T05:22:24.318Z,71.02
2023-01-22T05:24:51.024Z,69.85
2023-01-22T05:27:17.876Z,70.79
2023-01-22T05:29:44.483Z,70.30
2023-01-22T05:32:11.132Z,69.88
2023-01-22T05:34:38.311Z,70.72
2023-01-22T05:37:05.061Z,71.18
2023-01-22T05:39:31.733Z,70.29
2023-01-22T05:41:58.520Z,71.04
2023-01-22T05:44:25.160Z,71.20
2023-01-22T05:46:54.361Z,71.09
2023-01-22T05:49:20.995Z,71.78
2023-01-22T05:51:47.595Z,71.51
2023-01-22T05:54:14.395Z,71.51
2023-01-22T05:56:41.042Z,71.30
2023-01-22T05:59:07.763Z,71.72
2023-01-22T06:01:34.459Z,71.88
2023-01-22T06:04:01.277Z,71.90
2023-01-22T06:06:28.020Z,71.02
2023-01-22T06:08:54.660Z,71.92
2023-01-22T06:11:21.427Z,72.06
2023-01-22T06:13:48.109Z,72.32
2023-01-22T06:16:14.892Z,72.55
2023-01-22T06:18:41.532Z,72.45
2023-01-22T06:21:09.036Z,72.57
2023-01-22T06:23:36.405Z,72.01
2023-01-22T06:26:05.661Z,72.47
2023-01-22T06:28:32.405Z,72.42
2023-01-22T06:31:02.211Z,72.57
2023-01-22T06:33:28.965Z,71.84
2023-01-22T06:35:56.487Z,71.76
2023-01-22T06:38:24.320Z,70.93
2023-01-22T06:40:56.276Z,71.32
2023-01-22T06:43:24.301Z,71.90
2023-01-22T06:45:51.515Z,71.73
2023-01-22T06:48:18.444Z,71.33
2023-01-22T06:50:45.505Z,70.90
2023-01-22T06:53:12.508Z,71.02
2023-01-22T06:55:39.173Z,71.56
2023-01-22T06:58:05.851Z,71.14
2023-01-22T07:00:33.773Z,69.40
2023-01-22T07:03:00.413Z,70.43
2023-01-22T07:05:27.097Z,70.38
2023-01-22T07:07:54.780Z,70.25
2023-01-22T07:10:22.214Z,71.29
2023-01-22T07:12:49.668Z,70.92
2023-01-22T07:15:16.407Z,70.65
2023-01-22T07:17:43.313Z,70.61
2023-01-22T07:20:10.562Z,71.49
2023-01-22T07:22:37.370Z,70.91
2023-01-22T07:25:04.315Z,70.77
2023-01-22T07:27:30.953Z,71.11
2023-01-22T07:29:57.570Z,71.36
2023-01-22T07:32:24.229Z,70.85
2023-01-22T07:34:50.864Z,71.39
2023-01-22T07:37:17.538Z,71.21
2023-01-22T07:39:44.416Z,71.44
2023-01-22T07:42:12.601Z,70.86
2023-01-22T07:44:39.354Z,71.15
2023-01-22T07:47:06.656Z,70.77
2023-01-22T07:49:33.342Z,71.40
2023-01-22T07:52:00.538Z,71.48
2023-01-22T07:54:27.345Z,71.74
2023-01-22T07:56:53.981Z,71.60
2023-01-22T07:59:20.653Z,71.69
2023-01-22T08:01:47.523Z,71.94
2023-01-22T08:04:14.186Z,72.03
2023-01-22T08:06:40.962Z,72.13
2023-01-22T08:09:07.646Z,71.57
2023-01-22T08:11:34.362Z,72.03
2023-01-22T08:14:01.089Z,72.33
2023-01-22T08:16:27.764Z,72.00
2023-01-22T08:18:54.564Z,71.60
2023-01-22T08:21:21.315Z,72.28
2023-01-22T08:23:49.315Z,71.94
2023-01-22T08:26:16.144Z,71.43
2023-01-22T08:28:42.766Z,71.24
2023-01-22T08:31:16.407Z,71.21
2023-01-22T08:33:49.545Z,70.69
2023-01-22T08:36:16.212Z,70.82
2023-01-22T08:38:42.854Z,71.51
2023-01-22T08:41:09.513Z,71.39
2023-01-22T08:43:36.177Z,71.02
2023-01-22T08:46:02.905Z,70.68
2023-01-22T08:48:29.523Z,70.92
2023-01-22T08:50:59.999Z,70.35
2023-01-22T08:53:26.745Z,71.83
2023-01-22T08:55:54.050Z,71.34
2023-01-22T08:58:20.813Z,70.89
2023-01-22T09:00:49.637Z,70.84
2023-01-22T09:03:16.565Z,71.08
2023-01-22T09:05:43.184Z,70.76
2023-01-22T09:08:09.806Z,69.73
2023-01-22T09:10:36.469Z,69.72
2023-01-22T09:13:03.065Z,68.95
2023-01-22T09:15:29.718Z,69.04
2023-01-22T09:17:56.727Z,70.20
2023-01-22T09:20:23.347Z,70.10
2023-01-22T09:22:49.991Z,70.58
2023-01-22T09:25:16.616Z,70.74
2023-01-22T09:27:43.507Z,70.68
2023-01-22T09:30:11.111Z,70.26
2023-01-22T09:32:37.844Z,70.73
2023-01-22T09:35:04.862Z,69.62
2023-01-22T09:37:31.904Z,69.41
2023-01-22T09:39:58.559Z,68.74
2023-01-22T09:42:37.175Z,68.45
2023-01-22T09:45:11.026Z,69.63
2023-01-22T09:47:42.583Z,69.21
2023-01-22T09:50:14.489Z,69.19
2023-01-22T09:52:41.508Z,68.68
2023-01-22T09:55:18.365Z,68.66
2023-01-22T09:57:47.618Z,68.21
2023-01-22T10:00:31.197Z,67.57
2023-01-22T10:03:07.059Z,67.31
2023-01-22T10:05:46.759Z,66.22
2023-01-22T10:08:25.760Z,66.52
2023-01-22T10:10:52.437Z,65.89
2023-01-22T10:13:32.922Z,66.49
2023-01-22T10:15:59.628Z,65.84
2023-01-22T10:18:47.884Z,65.75
2023-01-22T10:21:33.260Z,64.60
2023-01-22T10:24:00.991Z,63.53
2023-01-22T10:26:39.485Z,64.01
2023-01-22T10:29:27.435Z,65.35
2023-01-22T10:32:02.188Z,64.41
2023-01-22T10:34:32.137Z,63.04
2023-01-22T10:37:10.976Z,62.83
2023-01-22T10:39:42.722Z,62.14
2023-01-22T10:42:24.876Z,64.33
2023-01-22T10:45:08.769Z,61.06
2023-01-22T10:47:35.423Z,61.54
2023-01-22T10:50:16.576Z,60.65
2023-01-22T10:52:53.576Z,59.81
2023-01-22T10:55:30.331Z,61.54
2023-01-22T10:58:03.235Z,61.91
2023-01-22T11:00:52.448Z,62.48
2023-01-22T11:03:23.753Z,60.68
2023-01-22T11:05:56.444Z,60.23
2023-01-22T11:08:27.149Z,62.00
2023-01-22T11:11:04.378Z,63.63
2023-01-22T11:13:51.231Z,63.27
2023-01-22T11:16:21.116Z,62.17
2023-01-22T11:19:36.971Z,63.99
2023-01-22T11:22:17.065Z,64.60
2023-01-22T11:24:44.213Z,64.15
2023-01-22T11:27:39.745Z,63.32
2023-01-22T11:30:46.702Z,63.36
2023-01-22T11:33:47.288Z,63.48
2023-01-22T11:36:26.199Z,63.03
2023-01-22T11:39:14.605Z,63.20
2023-01-22T11:42:03.847Z,61.96
2023-01-22T11:44:58.010Z,61.38
2023-01-22T11:47:43.116Z,59.98
2023-01-22T11:50:15.661Z,62.34
2023-01-22T11:52:53.196Z,61.80
2023-01-22T11:55:19.852Z,63.02
2023-01-22T11:58:05.688Z,62.17
2023-01-22T12:01:09.696Z,61.90
2023-01-22T12:04:18.624Z,61.08
2023-01-22T12:07:26.969Z,60.08
2023-01-22T12:10:21.887Z,60.69
2023-01-22T12:13:04.199Z,61.45
2023-01-22T12:15:39.816Z,61.94
2023-01-22T12:18:40.748Z,61.85
2023-01-22T12:21:26.116Z,60.37
2023-01-22T12:24:04.675Z,60.79
2023-01-22T12:26:41.660Z,60.53
2023-01-22T12:29:17.281Z,60.41
2023-01-22T12:32:02.020Z,60.58
2023-01-22T12:34:36.751Z,60.41
2023-01-22T12:37:05.907Z,61.00
2023-01-22T12:40:21.417Z,58.52
2023-01-22T12:43:00.004Z,58.78
2023-01-22T12:45:37.821Z,57.89
2023-01-22T12:48:12.317Z,59.12
2023-01-22T12:50:52.607Z,57.90
2023-01-22T12:53:25.147Z,57.86
2023-01-22T12:56:05.764Z,58.81
2023-01-22T12:58:35.880Z,61.03
2023-01-22T13:01:11.568Z,60.54
2023-01-22T13:03:40.689Z,59.16
2023-01-22T13:06:30.052Z,60.72
2023-01-22T13:08:56.846Z,60.42
2023-01-22T13:11:31.946Z,60.74
2023-01-22T13:14:16.729Z,60.61
2023-01-22T13:16:53.464Z,60.64
2023-01-22T13:19:24.899Z,61.10
2023-01-22T13:21:52.601Z,60.67
2023-01-22T13:24:21.128Z,60.51
2023-01-22T13:26:57.327Z,60.56
2023-01-22T13:29:30.462Z,60.77
2023-01-22T13:32:03.525Z,60.72
2023-01-22T13:34:30.403Z,62.46
2023-01-22T13:36:58.328Z,61.46
2023-01-22T13:39:28.191Z,61.99
2023-01-22T13:41:57.812Z,62.16
2023-01-22T13:44:43.223Z,60.86
2023-01-22T13:47:34.067Z,61.14
2023-01-22T13:50:01.400Z,61.31
2023-01-22T13:52:28.867Z,62.29
2023-01-22T13:54:58.428Z,62.65
2023-01-22T13:57:25.234Z,63.24
2023-01-22T13:59:53.805Z,62.60
2023-01-22T14:02:29.365Z,62.49
2023-01-22T14:04:58.778Z,62.04
2023-01-22T14:07:43.619Z,62.12
2023-01-22T14:10:22.991Z,61.53
2023-01-22T14:13:04.523Z,62.35
2023-01-22T14:15:32.487Z,62.99
2023-01-22T14:18:12.560Z,61.64
2023-01-22T14:20:41.122Z,62.89
2023-01-22T14:23:08.261Z,61.75
2023-01-22T14:25:44.578Z,61.91
2023-01-22T14:28:11.741Z,61.00
2023-01-22T14:30:38.834Z,60.96
2023-01-22T14:33:06.029Z,61.51
2023-01-22T14:35:33.207Z,60.60
2023-01-22T14:37:59.952Z,60.59
2023-01-22T14:40:27.724Z,61.02
2023-01-22T14:42:54.581Z,60.48
2023-01-22T14:45:21.840Z,60.96
2023-01-22T14:47:51.268Z,60.88
2023-01-22T14:50:19.688Z,61.36
2023-01-22T14:52:46.928Z,60.25
2023-01-22T14:55:13.866Z,60.92
2023-01-22T14:57:40.551Z,60.39
2023-01-22T15:00:08.366Z,60.43
2023-01-22T15:02:34.963Z,60.55
2023-01-22T15:05:01.558Z,61.42
2023-01-22T15:07:28.171Z,61.14
2023-01-22T15:09:54.873Z,60.72
2023-01-22T15:12:21.524Z,60.18
2023-01-22T15:14:48.149Z,60.90
2023-01-22T15:17:14.825Z,60.85
2023-01-22T15:19:41.857Z,61.29
2023-01-22T15:22:09.636Z,61.30
2023-01-22T15:24:36.435Z,61.97
2023-01-22T15:27:03.048Z,61.31
2023-01-22T15:29:29.681Z,62.52
2023-01-22T15:31:56.721Z,62.21
2023-01-22T15:34:23.525Z,62.85
2023-01-22T15:36:50.219Z,62.57
2023-01-22T15:39:16.991Z,63.18
2023-01-22T15:41:44.003Z,63.36
2023-01-22T15:44:13.041Z,63.63
2023-01-22T15:46:41.453Z,63.65
2023-01-22T15:49:08.976Z,63.32
2023-01-22T15:51:36.408Z,63.64
2023-01-22T15:54:05.611Z,63.30
2023-01-22T15:56:37.084Z,63.78
2023-01-22T15:59:05.210Z,63.57
2023-01-22T16:01:32.114Z,63.38
2023-01-22T16:03:58.979Z,63.81
2023-01-22T16:06:28.016Z,63.85
2023-01-22T16:08:57.352Z,63.99
2023-01-22T16:11:25.639Z,63.56
2023-01-22T16:13:52.657Z,64.61
2023-01-22T16:16:29.697Z,64.62
2023-01-22T16:18:57.659Z,64.69
2023-01-22T16:21:24.954Z,65.11
2023-01-22T16:23:57.636Z,65.10
2023-01-22T16:26:27.463Z,66.00
2023-01-22T16:28:57.299Z,65.70
2023-01-22T16:31:27.267Z,65.94
2023-01-22T16:34:06.170Z,65.86
2023-01-22T16:36:32.957Z,66.18
2023-01-22T16:39:00.310Z,65.91
2023-01-22T16:41:29.886Z,66.08
2023-01-22T16:44:14.426Z,67.00
2023-01-22T16:46:44.609Z,66.62
2023-01-22T16:49:20.958Z,65.58
2023-01-22T16:51:56.778Z,64.88
2023-01-22T16:54:26.957Z,66.59
2023-01-22T16:56:54.817Z,65.51
2023-01-22T16:59:21.556Z,66.44
2023-01-22T17:01:48.794Z,66.43
2023-01-22T17:04:16.225Z,67.33
2023-01-22T17:06:49.339Z,66.84
2023-01-22T17:09:22.341Z,66.40
2023-01-22T17:11:51.580Z,66.76
2023-01-22T17:14:21.058Z,66.66
2023-01-22T17:16:48.878Z,66.12
2023-01-22T17:19:16.939Z,67.56
2023-01-22T17:21:48.854Z,66.67
2023-01-22T17:24:15.497Z,65.84
2023-01-22T17:26:42.109Z,65.54
2023-01-22T17:29:09.601Z,65.90
2023-01-22T17:31:37.773Z,65.19
2023-01-22T17:34:05.081Z,66.35
2023-01-22T17:36:31.699Z,66.51
2023-01-22T17:38:58.351Z,65.40
2023-01-22T17:41:25.896Z,65.26
2023-01-22T17:43:53.097Z,65.81
2023-01-22T17:46:22.710Z,65.04
2023-01-22T17:48:51.736Z,65.25
2023-01-22T17:51:22.198Z,65.15
2023-01-22T17:53:50.623Z,64.24
2023-01-22T17:56:23.918Z,63.85
2023-01-22T17:58:55.211Z,64.84
2023-01-22T18:01:24.213Z,66.14
2023-01-22T18:03:51.557Z,66.04
2023-01-22T18:06:18.983Z,66.79
2023-01-22T18:08:45.664Z,66.72
2023-01-22T18:11:17.191Z,66.34
2023-01-22T18:13:44.333Z,66.44
2023-01-22T18:16:15.680Z,66.49
2023-01-22T18:18:43.608Z,66.74
2023-01-22T18:21:14.161Z,66.28
2023-01-22T18:23:40.886Z,66.05
2023-01-22T18:26:08.578Z,65.50
2023-01-22T18:28:36.203Z,65.44
2023-01-22T18:31:08.598Z,65.25
2023-01-22T18:33:36.699Z,65.08
2023-01-22T18:36:06.157Z,65.07
2023-01-22T18:38:33.286Z,64.76
2023-01-22T18:41:08.616Z,63.48
2023-01-22T18:43:35.588Z,64.54
2023-01-22T18:46:07.234Z,65.04
2023-01-22T18:48:34.101Z,65.03
2023-01-22T18:51:01.053Z,65.22
2023-01-22T18:53:28.028Z,64.44
2023-01-22T18:55:59.001Z,64.14
2023-01-22T18:58:26.401Z,63.84
2023-01-22T19:00:55.041Z,64.53
2023-01-22T19:03:22.938Z,64.66
2023-01-22T19:05:50.115Z,63.90
2023-01-22T19:08:18.289Z,64.24
2023-01-22T19:10:45.607Z,64.67
2023-01-22T19:13:13.096Z,64.76
2023-01-22T19:15:39.861Z,64.33
2023-01-22T19:18:06.615Z,63.85
2023-01-22T19:20:36.251Z,63.41
2023-01-22T19:23:04.538Z,65.10
2023-01-22T19:25:31.458Z,64.75
2023-01-22T19:27:58.549Z,65.37
2023-01-22T19:30:25.171Z,64.93
2023-01-22T19:32:55.832Z,64.91
2023-01-22T19:35:22.668Z,64.05
2023-01-22T19:37:51.111Z,64.36
2023-01-22T19:40:21.105Z,64.91
2023-01-22T19:42:48.816Z,65.16
2023-01-22T19:45:17.540Z,65.14
2023-01-22T19:47:47.716Z,64.63
2023-01-22T19:50:15.993Z,64.21
2023-01-22T19:52:44.017Z,63.80
2023-01-22T19:55:10.956Z,63.45
2023-01-22T19:57:37.575Z,64.44
2023-01-22T20:00:04.977Z,64.86
2023-01-22T20:02:31.757Z,64.79
2023-01-22T20:04:58.539Z,64.70
2023-01-22T20:07:25.217Z,64.31
2023-01-22T20:09:52.904Z,64.19
2023-01-22T20:12:20.852Z,64.08
2023-01-22T20:14:47.541Z,64.10
2023-01-22T20:17:14.148Z,64.52
2023-01-22T20:19:40.771Z,64.13
2023-01-22T20:22:08.138Z,64.64
2023-01-22T20:24:35.096Z,65.39
2023-01-22T20:27:01.798Z,65.18
2023-01-22T20:29:28.576Z,64.45
2023-01-22T20:31:55.792Z,64.36
2023-01-22T20:34:22.712Z,65.28
2023-01-22T20:36:49.364Z,65.04
2023-01-22T20:39:18.648Z,65.25
2023-01-22T20:41:45.627Z,64.97
2023-01-22T20:44:13.352Z,65.04
2023-01-22T20:46:40.563Z,65.37
2023-01-22T20:49:08.463Z,65.11
2023-01-22T20:51:35.802Z,64.96
2023-01-22T20:54:03.347Z,64.35
2023-01-22T20:56:32.018Z,64.70
2023-01-22T20:59:06.017Z,63.88
2023-01-22T21:01:34.091Z,64.82
2023-01-22T21:04:02.357Z,65.38
2023-01-22T21:06:31.307Z,64.83
2023-01-22T21:08:58.832Z,65.14
2023-01-22T21:11:26.808Z,64.96
2023-01-22T21:13:54.852Z,63.36
2023-01-22T21:16:25.522Z,64.28
2023-01-22T21:18:57.601Z,63.60
2023-01-22T21:21:24.439Z,65.03
2023-01-22T21:23:53.871Z,64.28
2023-01-22T21:26:26.350Z,63.94
2023-01-22T21:29:02.304Z,64.10
2023-01-22T21:31:29.980Z,64.73
2023-01-22T21:33:59.182Z,64.58
2023-01-22T21:36:25.810Z,64.87
2023-01-22T21:38:52.450Z,64.93
2023-01-22T21:41:19.256Z,64.78
2023-01-22T21:43:47.327Z,64.57
2023-01-22T21:46:14.127Z,65.14
2023-01-22T21:48:40.829Z,65.38
2023-01-22T21:51:07.945Z,65.55
2023-01-22T21:53:34.780Z,65.47
2023-01-22T21:56:01.689Z,65.11
2023-01-22T21:58:28.328Z,65.35
2023-01-22T22:00:55.385Z,64.45
2023-01-22T22:03:22.033Z,65.70
2023-01-22T22:05:56.805Z,65.99
2023-01-22T22:08:23.528Z,66.02
2023-01-22T22:10:51.431Z,64.65
2023-01-22T22:13:18.691Z,65.44
2023-01-22T22:15:45.754Z,65.81
2023-01-22T22:18:13.073Z,65.99
2023-01-22T22:20:39.827Z,66.69
2023-01-22T22:23:06.666Z,67.63
2023-01-22T22:25:34.273Z,67.21
2023-01-22T22:28:01.288Z,67.02
2023-01-22T22:30:28.088Z,67.65
2023-01-22T22:32:55.090Z,66.52
2023-01-22T22:35:22.059Z,66.58
2023-01-22T22:37:48.764Z,67.03
2023-01-22T22:40:15.994Z,67.13
2023-01-22T22:42:43.240Z,67.26
2023-01-22T22:45:10.239Z,67.66
2023-01-22T22:47:36.937Z,66.86
2023-01-22T22:50:05.410Z,67.69
2023-01-22T22:52:35.172Z,67.90
2023-01-22T22:55:02.324Z,68.08
2023-01-22T22:57:29.432Z,67.97
2023-01-22T22:59:56.235Z,68.79
2023-01-22T23:02:23.110Z,68.72
2023-01-22T23:04:49.771Z,69.13
2023-01-22T23:07:16.466Z,69.32
2023-01-22T23:09:43.106Z,69.27
2023-01-22T23:12:09.972Z,68.97
2023-01-22T23:14:36.636Z,69.50
2023-01-22T23:17:04.494Z,69.20
2023-01-22T23:19:31.105Z,68.97
2023-01-22T23:22:00.171Z,68.54
2023-01-22T23:24:28.228Z,68.78
2023-01-22T23:26:55.476Z,68.35
2023-01-22T23:29:24.151Z,67.85
2023-01-22T23:31:51.233Z,68.17
2023-01-22T23:34:20.707Z,68.64
2023-01-22T23:36:48.904Z,67.63
2023-01-22T23:39:18.542Z,67.45
2023-01-22T23:41:45.958Z,68.82
2023-01-22T23:44:12.853Z,68.72
2023-01-22T23:46:40.624Z,68.37
2023-01-22T23:49:07.253Z,68.13
2023-01-22T23:51:33.927Z,69.31
2023-01-22T23:54:00.728Z,69.29
2023-01-22T23:56:28.933Z,69.88
2023-01-22T23:58:56.870Z,69.43
